Dades meteomassalio
Diari Summary for Agost 15, 2017 Units:  Metric    English   Both
« Previous Day
Next Day »
Diari Semanal Mensual Anual Personalitzat
  Maxima: Minima: Mijana:
Temperatura: 33.2 °C 16.2 °C 24.5 °C
Rosada: 19.8 °C 10.8 °C 15.7 °C
Humitat: 81 % 39 % 60 %
Velocitat del vent: 57.9 km/h 0.0 km/h 7.9 km/h
Racha vent: 57.9 km/h - -
Vent:- - ESE
Pressio: 1017.5 hPa 1013.1 hPa -
Pluja: 0.3 mm    
Historical Graphs
 
 
Tabular Data for Agost 15, 2017
Time Temperature Dew Point Pressure Wind Wind Speed Wind Gust Humidity Rainfall Rate (Hourly) solar Conditions
00:04 23.2 °C 12.4 °C 1015.5 hPa Calm     51 % 0.0 mm 0.0 W/m2 CLR
00:09 23.1 °C 12.7 °C 1015.8 hPa Calm     52 % 0.0 mm 0.0 W/m2 CLR
00:14 22.9 °C 13.4 °C 1015.8 hPa Calm     55 % 0.0 mm 0.0 W/m2 CLR
00:19 22.8 °C 13.6 °C 1015.8 hPa Calm     56 % 0.0 mm 0.0 W/m2 CLR
00:24 22.6 °C 12.8 °C 1015.5 hPa Calm     54 % 0.0 mm 0.0 W/m2 CLR
00:29 22.4 °C 13.2 °C 1015.5 hPa Calm     56 % 0.0 mm 0.0 W/m2 CLR
00:34 22.3 °C 13.1 °C 1015.8 hPa Calm     56 % 0.0 mm 0.0 W/m2 CLR
00:39 22.0 °C 12.8 °C 1015.8 hPa Calm     56 % 0.0 mm 0.0 W/m2 CLR
00:44 21.9 °C 12.7 °C 1015.8 hPa Calm     56 % 0.0 mm 0.0 W/m2 CLR
00:49 21.7 °C 13.1 °C 1015.8 hPa Calm     58 % 0.0 mm 0.0 W/m2 CLR
00:54 21.6 °C 12.4 °C 1015.8 hPa Calm     56 % 0.0 mm 0.0 W/m2 CLR
00:59 21.4 °C 13.3 °C 1015.8 hPa Calm     60 % 0.0 mm 0.0 W/m2 CLR
01:04 21.5 °C 13.4 °C 1015.8 hPa Calm     60 % 0.0 mm 0.0 W/m2 CLR
01:09 21.4 °C 12.3 °C 1015.8 hPa Calm     56 % 0.0 mm 0.0 W/m2 CLR
01:14 21.3 °C 12.7 °C 1015.8 hPa Calm     58 % 0.0 mm 0.0 W/m2 CLR
01:19 21.1 °C 12.8 °C 1015.8 hPa Calm     59 % 0.0 mm 0.0 W/m2 CLR
01:24 21.0 °C 12.2 °C 1015.8 hPa Calm     57 % 0.0 mm 0.0 W/m2 CLR
01:29 20.9 °C 12.3 °C 1015.8 hPa Calm     58 % 0.0 mm 0.0 W/m2 CLR
01:34 20.7 °C 12.2 °C 1015.8 hPa Calm     58 % 0.0 mm 0.0 W/m2 CLR
01:39 20.7 °C 12.1 °C 1015.8 hPa Calm     58 % 0.0 mm 0.0 W/m2 CLR
01:44 20.6 °C 11.4 °C 1015.8 hPa Calm     56 % 0.0 mm 0.0 W/m2 CLR
01:49 20.4 °C 11.3 °C 1015.8 hPa Calm     56 % 0.0 mm 0.0 W/m2 CLR
01:54 20.2 °C 11.7 °C 1015.8 hPa Calm     58 % 0.0 mm 0.0 W/m2 CLR
01:59 20.1 °C 12.3 °C 1015.8 hPa Calm     61 % 0.0 mm 0.0 W/m2 CLR
02:04 20.1 °C 11.8 °C 1015.8 hPa Calm     59 % 0.0 mm 0.0 W/m2 CLR
02:09 20.1 °C 12.3 °C 1015.8 hPa Calm     61 % 0.0 mm 0.0 W/m2 CLR
02:14 20.1 °C 13.3 °C 1015.8 hPa Calm     65 % 0.0 mm 0.0 W/m2 CLR
02:19 20.0 °C 11.5 °C 1015.8 hPa Calm     58 % 0.0 mm 0.0 W/m2 CLR
02:25 19.7 °C 11.5 °C 1015.8 hPa Calm     59 % 0.0 mm 0.0 W/m2 CLR
02:30 19.5 °C 11.3 °C 1015.5 hPa Calm     59 % 0.0 mm 0.0 W/m2 CLR
02:35 19.3 °C 10.8 °C 1015.8 hPa Calm     58 % 0.0 mm 0.0 W/m2 CLR
02:40 19.2 °C 11.5 °C 1015.8 hPa Calm     61 % 0.0 mm 0.0 W/m2 CLR
02:45 19.1 °C 11.4 °C 1015.8 hPa Calm     61 % 0.0 mm 0.0 W/m2 CLR
02:50 18.9 °C 11.5 °C 1015.8 hPa Calm     62 % 0.0 mm 0.0 W/m2 CLR
02:55 18.8 °C 11.2 °C 1015.8 hPa Calm     61 % 0.0 mm 0.0 W/m2 CLR
03:00 18.9 °C 12.2 °C 1015.8 hPa Calm     65 % 0.0 mm 0.0 W/m2 CLR
03:05 18.9 °C 11.7 °C 1015.8 hPa Calm     63 % 0.0 mm 0.0 W/m2 CLR
03:10 18.9 °C 12.2 °C 1016.1 hPa Calm   0.8 km/h 65 % 0.0 mm 0.0 W/m2 CLR
03:15 19.4 °C 14.4 °C 1016.1 hPa Calm     73 % 0.0 mm 0.0 W/m2 CLR
03:20 19.4 °C 11.9 °C 1016.1 hPa Calm     62 % 0.0 mm 0.0 W/m2 CLR
03:25 19.1 °C 11.4 °C 1016.1 hPa Calm     61 % 0.0 mm 0.0 W/m2 CLR
03:30 18.9 °C 11.9 °C 1016.1 hPa Calm     64 % 0.0 mm 0.0 W/m2 CLR
03:35 18.8 °C 11.9 °C 1016.1 hPa Calm     64 % 0.0 mm 0.0 W/m2 CLR
03:40 18.8 °C 12.3 °C 1016.1 hPa Calm     66 % 0.0 mm 0.0 W/m2 CLR
03:45 18.6 °C 11.4 °C 1016.5 hPa Calm     63 % 0.0 mm 0.0 W/m2 CLR
03:50 18.3 °C 11.2 °C 1016.5 hPa Calm     63 % 0.0 mm 0.0 W/m2 CLR
03:55 18.2 °C 11.3 °C 1016.5 hPa Calm     64 % 0.0 mm 0.0 W/m2 CLR
04:00 18.0 °C 10.8 °C 1016.1 hPa Calm     63 % 0.0 mm 0.0 W/m2 CLR
04:05 17.9 °C 11.9 °C 1016.1 hPa Calm     68 % 0.0 mm 0.0 W/m2 CLR
04:10 17.9 °C 11.4 °C 1016.1 hPa Calm     66 % 0.0 mm 0.0 W/m2 CLR
04:11 17.9 °C 11.2 °C 1016.1 hPa Calm     65 % 0.0 mm 0.0 W/m2 CLR
04:16 17.8 °C 11.2 °C 1016.5 hPa Calm     65 % 0.0 mm 0.0 W/m2 CLR
04:21 17.7 °C 11.5 °C 1016.1 hPa Calm     67 % 0.0 mm 0.0 W/m2 CLR
04:26 17.8 °C 11.8 °C 1016.5 hPa Calm     68 % 0.0 mm 0.0 W/m2 CLR
04:31 17.8 °C 11.8 °C 1016.5 hPa Calm     68 % 0.0 mm 0.0 W/m2 CLR
04:36 18.0 °C 13.3 °C 1016.5 hPa Calm     74 % 0.0 mm 0.0 W/m2 CLR
04:41 18.0 °C 13.5 °C 1016.5 hPa Calm     75 % 0.0 mm 0.0 W/m2 CLR
04:46 17.7 °C 11.3 °C 1016.1 hPa Calm     66 % 0.0 mm 0.0 W/m2 CLR
04:51 17.6 °C 11.8 °C 1016.1 hPa Calm     69 % 0.0 mm 0.0 W/m2 CLR
04:56 17.4 °C 11.7 °C 1016.1 hPa Calm     69 % 0.0 mm 0.0 W/m2 CLR
05:01 17.4 °C 11.8 °C 1016.1 hPa Calm     70 % 0.0 mm 0.0 W/m2 CLR
05:06 17.4 °C 12.6 °C 1016.5 hPa Calm     73 % 0.0 mm 0.0 W/m2 CLR
05:11 17.4 °C 12.1 °C 1016.5 hPa Calm     71 % 0.0 mm 0.0 W/m2 CLR
05:16 17.4 °C 11.9 °C 1016.1 hPa Calm     70 % 0.0 mm 0.0 W/m2 CLR
05:21 17.3 °C 11.2 °C 1016.1 hPa Calm     67 % 0.0 mm 0.0 W/m2 CLR
05:24 17.2 °C 11.3 °C 1016.1 hPa Calm     68 % 0.0 mm 0.0 W/m2 CLR
05:29 17.1 °C 11.1 °C 1016.1 hPa Calm     68 % 0.0 mm 0.0 W/m2 CLR
05:34 17.0 °C 11.9 °C 1016.1 hPa Calm     72 % 0.0 mm 0.0 W/m2 CLR
05:39 16.9 °C 11.7 °C 1016.1 hPa Calm     71 % 0.0 mm 0.0 W/m2 CLR
05:44 17.0 °C 12.3 °C 1016.1 hPa WSW 5.6 km/h 5.6 km/h 74 % 0.0 mm 0.0 W/m2 CLR
05:49 17.1 °C 12.6 °C 1016.5 hPa Calm     75 % 0.0 mm 0.0 W/m2 CLR
05:54 17.0 °C 12.1 °C 1016.5 hPa Calm     73 % 0.0 mm 0.0 W/m2 CLR
05:59 16.9 °C 11.6 °C 1016.5 hPa Calm     71 % 0.0 mm 0.0 W/m2 CLR
06:04 16.7 °C 11.7 °C 1016.5 hPa SSW 3.7 km/h 3.7 km/h 72 % 0.0 mm 0.0 W/m2 CLR
06:09 16.7 °C 11.8 °C 1016.5 hPa SSW 4.8 km/h 4.8 km/h 73 % 0.0 mm 0.0 W/m2 CLR
06:14 16.8 °C 12.8 °C 1016.5 hPa Calm     77 % 0.0 mm 0.0 W/m2 CLR
06:19 16.9 °C 12.7 °C 1016.5 hPa Calm     76 % 0.0 mm 0.0 W/m2 CLR
06:24 17.0 °C 12.6 °C 1016.5 hPa Calm     75 % 0.0 mm 0.0 W/m2 CLR
06:29 17.0 °C 12.6 °C 1016.5 hPa Calm     75 % 0.0 mm 0.0 W/m2 CLR
06:34 16.9 °C 12.3 °C 1016.5 hPa Calm     74 % 0.0 mm 0.0 W/m2 CLR
06:39 16.8 °C 12.2 °C 1016.5 hPa Calm     74 % 0.0 mm 0.0 W/m2 CLR
06:44 16.7 °C 12.3 °C 1016.5 hPa Calm     75 % 0.0 mm 0.0 W/m2 CLR
06:49 16.6 °C 12.2 °C 1016.5 hPa Calm     75 % 0.0 mm 0.0 W/m2 CLR
06:54 16.5 °C 12.3 °C 1016.5 hPa Calm     76 % 0.0 mm 0.0 W/m2 CLR
06:59 16.4 °C 12.3 °C 1016.8 hPa Calm     77 % 0.0 mm 0.0 W/m2 CLR
07:04 16.4 °C 12.6 °C 1016.8 hPa Calm     78 % 0.0 mm 0.0 W/m2 OVC
07:09 16.3 °C 12.1 °C 1016.8 hPa Calm     76 % 0.0 mm 0.0 W/m2 OVC
07:15 16.3 °C 12.1 °C 1016.8 hPa Calm     76 % 0.0 mm 7.0 W/m2 OVC
07:20 16.2 °C 12.1 °C 1016.8 hPa Calm     77 % 0.0 mm 11.0 W/m2 BKN
07:25 16.2 °C 12.6 °C 1016.8 hPa Calm     79 % 0.0 mm 14.0 W/m2 BKN
07:30 16.3 °C 12.6 °C 1016.8 hPa Calm     79 % 0.0 mm 21.0 W/m2 BKN
07:35 16.3 °C 12.6 °C 1016.8 hPa Calm     79 % 0.0 mm 26.0 W/m2 BKN
07:40 16.4 °C 12.9 °C 1016.8 hPa Calm     80 % 0.0 mm 32.0 W/m2 BKN
07:45 16.6 °C 12.8 °C 1016.8 hPa Calm     78 % 0.0 mm 39.0 W/m2 BKN
07:50 16.6 °C 12.2 °C 1016.8 hPa Calm     75 % 0.0 mm 49.0 W/m2 SCT
07:55 16.7 °C 12.1 °C 1017.2 hPa Calm     74 % 0.0 mm 58.0 W/m2 SCT
08:00 16.8 °C 12.1 °C 1016.8 hPa Calm     74 % 0.0 mm 65.0 W/m2 SCT
08:05 16.9 °C 12.6 °C 1017.2 hPa Calm   0.6 km/h 76 % 0.0 mm 77.0 W/m2 FEW
08:10 17.1 °C 12.8 °C 1017.2 hPa West 1.9 km/h   76 % 0.0 mm 93.0 W/m2 CLR
08:15 17.3 °C 13.3 °C 1017.5 hPa Calm     77 % 0.0 mm 107.0 W/m2 CLR
08:20 17.7 °C 13.2 °C 1017.2 hPa Calm     75 % 0.0 mm 118.0 W/m2 CLR
08:25 18.1 °C 13.3 °C 1017.2 hPa Calm     74 % 0.0 mm 132.0 W/m2 CLR
08:30 18.4 °C 13.4 °C 1017.2 hPa Calm     73 % 0.0 mm 149.0 W/m2 CLR
08:35 18.8 °C 13.7 °C 1017.2 hPa Calm     72 % 0.0 mm 174.0 W/m2 CLR
08:40 19.3 °C 13.9 °C 1017.2 hPa Calm     71 % 0.0 mm 206.0 W/m2 CLR
08:45 19.8 °C 14.2 °C 1017.2 hPa Calm     70 % 0.0 mm 251.0 W/m2 CLR
08:50 20.3 °C 14.2 °C 1017.2 hPa Calm     68 % 0.0 mm 288.0 W/m2 CLR
08:55 20.8 °C 14.5 °C 1017.2 hPa Calm     67 % 0.0 mm 281.0 W/m2 CLR
09:00 21.2 °C 13.9 °C 1017.2 hPa Calm     63 % 0.0 mm 276.0 W/m2 CLR
09:05 21.6 °C 14.0 °C 1017.2 hPa Calm     62 % 0.0 mm 271.0 W/m2 CLR
09:10 22.0 °C 14.4 °C 1017.2 hPa Calm     62 % 0.0 mm 264.0 W/m2 CLR
09:15 22.4 °C 14.3 °C 1017.2 hPa Calm     60 % 0.0 mm 306.0 W/m2 CLR
09:20 22.8 °C 14.6 °C 1017.2 hPa Calm     60 % 0.0 mm 329.0 W/m2 CLR
09:25 23.2 °C 15.0 °C 1017.2 hPa Calm     60 % 0.0 mm 160.0 W/m2 CLR
09:30 23.7 °C 14.9 °C 1017.2 hPa Calm     58 % 0.0 mm 330.0 W/m2 CLR
09:35 23.7 °C 15.2 °C 1017.2 hPa Calm     59 % 0.0 mm 155.0 W/m2 CLR
09:40 23.7 °C 15.9 °C 1016.8 hPa Calm     62 % 0.0 mm 406.0 W/m2 CLR
09:45 23.9 °C 16.2 °C 1016.8 hPa Calm     62 % 0.0 mm 388.0 W/m2 CLR
09:50 24.1 °C 16.1 °C 1016.8 hPa Calm     61 % 0.0 mm 397.0 W/m2 CLR
09:55 24.3 °C 16.3 °C 1016.5 hPa Calm     61 % 0.0 mm 413.0 W/m2 CLR
10:00 24.7 °C 16.4 °C 1016.5 hPa Calm     60 % 0.0 mm 427.0 W/m2 CLR
10:05 24.9 °C 16.7 °C 1016.5 hPa Calm     60 % 0.0 mm 441.0 W/m2 CLR
10:10 25.5 °C 17.2 °C 1016.5 hPa Calm     60 % 0.0 mm 454.0 W/m2 CLR
10:15 26.0 °C 17.1 °C 1016.5 hPa Calm     58 % 0.0 mm 469.0 W/m2 CLR
10:20 26.3 °C 17.1 °C 1016.8 hPa Calm     57 % 0.0 mm 490.0 W/m2 CLR
10:25 26.4 °C 17.2 °C 1016.5 hPa Calm     57 % 0.0 mm 506.0 W/m2 CLR
10:30 26.8 °C 17.3 °C 1016.5 hPa ENE 8.0 km/h 8.0 km/h 56 % 0.0 mm 519.0 W/m2 CLR
10:35 27.0 °C 17.2 °C 1016.5 hPa ENE 6.4 km/h 6.4 km/h 55 % 0.0 mm 531.0 W/m2 CLR
10:40 27.3 °C 16.6 °C 1016.5 hPa NE 5.6 km/h 5.6 km/h 52 % 0.0 mm 543.0 W/m2 CLR
10:45 27.9 °C 17.1 °C 1016.5 hPa Calm     52 % 0.0 mm 557.0 W/m2 CLR
10:50 28.2 °C 16.8 °C 1016.5 hPa East 11.3 km/h 11.3 km/h 50 % 0.0 mm 570.0 W/m2 CLR
10:55 28.2 °C 16.5 °C 1016.5 hPa Calm     49 % 0.0 mm 582.0 W/m2 CLR
11:00 28.5 °C 15.4 °C 1016.5 hPa NE 13.0 km/h 13.0 km/h 45 % 0.0 mm 598.0 W/m2 CLR
11:05 28.8 °C 14.6 °C 1016.5 hPa NE 13.0 km/h 13.0 km/h 42 % 0.0 mm 599.0 W/m2 CLR
11:10 28.9 °C 14.4 °C 1016.5 hPa NE 9.3 km/h 9.3 km/h 41 % 0.0 mm 615.0 W/m2 CLR
11:15 29.1 °C 14.8 °C 1016.5 hPa NE 9.3 km/h 9.3 km/h 42 % 0.0 mm 622.0 W/m2 CLR
11:20 29.1 °C 15.6 °C 1016.5 hPa NE 9.7 km/h 9.7 km/h 44 % 0.0 mm 640.0 W/m2 CLR
11:25 29.2 °C 15.7 °C 1016.1 hPa ENE 9.3 km/h 9.3 km/h 44 % 0.0 mm 654.0 W/m2 CLR
11:30 29.2 °C 15.0 °C 1016.5 hPa ESE 9.3 km/h 9.3 km/h 42 % 0.0 mm 663.0 W/m2 CLR
11:35 29.2 °C 15.3 °C 1016.1 hPa ENE 8.0 km/h 8.0 km/h 43 % 0.0 mm 671.0 W/m2 CLR
11:40 29.3 °C 15.1 °C 1016.1 hPa ENE 9.3 km/h 9.3 km/h 42 % 0.0 mm 682.0 W/m2 CLR
11:45 29.4 °C 15.6 °C 1016.5 hPa East 14.5 km/h 14.5 km/h 43 % 0.0 mm 698.0 W/m2 CLR
11:50 29.4 °C 15.6 °C 1016.1 hPa ESE 6.4 km/h 6.4 km/h 43 % 0.0 mm 703.0 W/m2 CLR
11:55 29.3 °C 15.1 °C 1016.1 hPa Calm     42 % 0.0 mm 719.0 W/m2 CLR
12:00 29.8 °C 15.8 °C 1016.1 hPa North 5.6 km/h   43 % 0.0 mm 729.0 W/m2 CLR
12:05 30.3 °C 15.9 °C 1016.1 hPa ENE 5.6 km/h 5.6 km/h 42 % 0.0 mm 740.0 W/m2 CLR
12:10 30.4 °C 16.1 °C 1016.1 hPa ENE 9.3 km/h 9.3 km/h 42 % 0.0 mm 754.0 W/m2 CLR
12:15 30.6 °C 16.2 °C 1016.1 hPa SE 7.4 km/h 7.4 km/h 42 % 0.0 mm 805.0 W/m2 CLR
12:20 30.5 °C 15.8 °C 1016.1 hPa East 5.6 km/h 5.6 km/h 41 % 0.0 mm 650.0 W/m2 CLR
12:25 30.3 °C 16.3 °C 1016.1 hPa NE 5.6 km/h 5.6 km/h 43 % 0.0 mm 846.0 W/m2 CLR
12:30 30.5 °C 16.5 °C 1015.8 hPa Calm     43 % 0.0 mm 522.0 W/m2 CLR
12:35 30.9 °C 17.6 °C 1015.8 hPa East 9.3 km/h 9.3 km/h 45 % 0.0 mm 823.0 W/m2 CLR
12:40 31.1 °C 17.4 °C 1015.8 hPa East 13.0 km/h 13.0 km/h 44 % 0.0 mm 847.0 W/m2 CLR
12:45 30.8 °C 17.5 °C 1015.8 hPa ESE 7.4 km/h 7.4 km/h 45 % 0.0 mm 872.0 W/m2 CLR
12:50 31.0 °C 17.3 °C 1015.8 hPa East 3.2 km/h 3.2 km/h 44 % 0.0 mm 879.0 W/m2 CLR
12:55 31.5 °C 17.4 °C 1015.8 hPa NNE 9.3 km/h 9.3 km/h 43 % 0.0 mm 888.0 W/m2 CLR
13:00 31.9 °C 17.8 °C 1015.5 hPa North 5.6 km/h 5.6 km/h 43 % 0.0 mm 909.0 W/m2 CLR
13:05 32.2 °C 17.6 °C 1015.5 hPa East 11.1 km/h 11.1 km/h 42 % 0.0 mm 925.0 W/m2 CLR
13:11 32.2 °C 17.7 °C 1015.5 hPa ENE 11.1 km/h 11.1 km/h 42 % 0.0 mm 884.0 W/m2 CLR
13:16 32.5 °C 17.9 °C 1015.5 hPa ESE 16.7 km/h 16.7 km/h 42 % 0.0 mm 847.0 W/m2 CLR
13:21 32.6 °C 17.3 °C 1015.5 hPa SE 14.8 km/h 14.8 km/h 40 % 0.0 mm 838.0 W/m2 CLR
13:26 32.6 °C 16.8 °C 1015.5 hPa SE 19.3 km/h 19.3 km/h 39 % 0.0 mm 835.0 W/m2 CLR
13:31 32.5 °C 16.8 °C 1015.1 hPa SSE 18.5 km/h 18.5 km/h 39 % 0.0 mm 838.0 W/m2 CLR
13:36 32.3 °C 17.8 °C 1015.1 hPa SSE 16.7 km/h 16.7 km/h 42 % 0.0 mm 838.0 W/m2 CLR
13:41 32.6 °C 18.1 °C 1015.1 hPa ESE 12.9 km/h 12.9 km/h 42 % 0.0 mm 831.0 W/m2 CLR
13:46 32.6 °C 18.1 °C 1015.1 hPa SE 18.5 km/h 18.5 km/h 42 % 0.0 mm 833.0 W/m2 CLR
13:51 32.8 °C 18.2 °C 1014.8 hPa East 13.0 km/h 13.0 km/h 42 % 0.0 mm 847.0 W/m2 CLR
13:56 33.0 °C 18.4 °C 1014.8 hPa SE 18.5 km/h 18.5 km/h 42 % 0.0 mm 861.0 W/m2 CLR
14:01 32.7 °C 18.1 °C 1015.1 hPa ESE 16.7 km/h 16.7 km/h 42 % 0.0 mm 633.0 W/m2 CLR
14:06 32.6 °C 18.4 °C 1015.1 hPa SSE 18.5 km/h 18.5 km/h 43 % 0.0 mm 868.0 W/m2 CLR
14:11 32.4 °C 17.9 °C 1014.8 hPa SE 18.5 km/h 18.5 km/h 42 % 0.0 mm 851.0 W/m2 CLR
14:16 32.6 °C 18.3 °C 1014.8 hPa ESE 18.5 km/h 18.5 km/h 43 % 0.0 mm 853.0 W/m2 CLR
14:21 32.6 °C 18.0 °C 1014.8 hPa SE 20.4 km/h 20.4 km/h 42 % 0.0 mm 833.0 W/m2 CLR
14:26 32.4 °C 18.2 °C 1014.4 hPa ESE 24.1 km/h 24.1 km/h 43 % 0.0 mm 868.0 W/m2 CLR
14:31 32.4 °C 18.6 °C 1014.4 hPa East 24.1 km/h 24.1 km/h 44 % 0.0 mm 882.0 W/m2 CLR
14:36 32.7 °C 18.5 °C 1014.1 hPa ESE 18.5 km/h 18.5 km/h 43 % 0.0 mm 923.0 W/m2 CLR
14:41 33.2 °C 18.9 °C 1014.4 hPa East 25.7 km/h 25.7 km/h 43 % 0.0 mm 881.0 W/m2 CLR
14:46 32.8 °C 18.6 °C 1014.4 hPa ESE 22.2 km/h 22.2 km/h 43 % 0.0 mm 585.0 W/m2 CLR
14:51 32.6 °C 18.8 °C 1014.4 hPa ESE 22.2 km/h 22.2 km/h 44 % 0.0 mm 680.0 W/m2 CLR
14:56 32.3 °C 18.4 °C 1014.4 hPa ESE 25.7 km/h 25.7 km/h 44 % 0.0 mm 304.0 W/m2 CLR
15:01 32.1 °C 18.6 °C 1014.4 hPa SE 18.5 km/h 18.5 km/h 45 % 0.0 mm 272.0 W/m2 CLR
15:06 31.9 °C 18.6 °C 1014.8 hPa SSE 18.5 km/h 18.5 km/h 45 % 0.0 mm 260.0 W/m2 CLR
15:11 31.7 °C 19.0 °C 1014.8 hPa SE 22.2 km/h 22.2 km/h 47 % 0.0 mm 250.0 W/m2 CLR
15:16 31.3 °C 18.9 °C 1014.4 hPa SE 24.1 km/h 24.1 km/h 48 % 0.0 mm 227.0 W/m2 CLR
15:21 31.1 °C 19.1 °C 1014.1 hPa ESE 18.5 km/h 18.5 km/h 49 % 0.0 mm 176.0 W/m2 CLR
15:26 30.8 °C 19.2 °C 1014.1 hPa East 19.3 km/h 19.3 km/h 50 % 0.0 mm 132.0 W/m2 CLR
15:31 30.2 °C 19.3 °C 1014.1 hPa ESE 22.2 km/h 22.2 km/h 52 % 0.0 mm 100.0 W/m2 CLR
15:36 30.1 °C 19.5 °C 1014.1 hPa ESE 22.2 km/h 22.2 km/h 53 % 0.0 mm 81.0 W/m2 CLR
15:41 29.8 °C 19.5 °C 1014.4 hPa ESE 22.2 km/h 22.2 km/h 54 % 0.0 mm 72.0 W/m2 FEW
15:46 29.1 °C 19.4 °C 1014.4 hPa ESE 18.5 km/h 18.5 km/h 56 % 0.0 mm 72.0 W/m2 FEW
15:51 28.8 °C 19.4 °C 1014.4 hPa East 24.1 km/h 24.1 km/h 57 % 0.0 mm 72.0 W/m2 FEW
15:56 28.7 °C 19.6 °C 1014.4 hPa ESE 20.4 km/h 20.4 km/h 58 % 0.0 mm 69.0 W/m2 FEW
16:01 28.8 °C 19.7 °C 1014.8 hPa ESE 9.7 km/h 9.7 km/h 58 % 0.0 mm 62.0 W/m2 FEW
16:06 28.9 °C 19.5 °C 1014.4 hPa ESE 11.1 km/h 11.1 km/h 57 % 0.0 mm 56.0 W/m2 SCT
16:11 28.8 °C 19.7 °C 1014.4 hPa East 11.1 km/h 11.1 km/h 58 % 0.0 mm 54.0 W/m2 SCT
16:16 28.6 °C 19.8 °C 1014.4 hPa ENE 14.8 km/h 14.8 km/h 59 % 0.0 mm 44.0 W/m2 SCT
16:21 28.3 °C 19.6 °C 1014.1 hPa ENE 11.1 km/h 11.1 km/h 59 % 0.0 mm 37.0 W/m2 BKN
16:26 28.2 °C 19.7 °C 1014.8 hPa Calm     60 % 0.0 mm 33.0 W/m2 BKN
16:31 28.2 °C 19.4 °C 1014.1 hPa ESE 13.0 km/h 13.0 km/h 59 % 0.0 mm 26.0 W/m2 BKN
16:36 28.1 °C 19.3 °C 1014.4 hPa SE 24.1 km/h 24.1 km/h 59 % 0.0 mm 21.0 W/m2 BKN
16:41 27.9 °C 19.4 °C 1014.1 hPa ESE 24.1 km/h 24.1 km/h 60 % 0.0 mm 18.0 W/m2 BKN
16:46 27.7 °C 19.5 °C 1015.1 hPa Calm     61 % 0.0 mm 16.0 W/m2 BKN
16:51 27.7 °C 19.5 °C 1015.5 hPa Calm     61 % 0.0 mm 14.0 W/m2 BKN
16:56 27.7 °C 19.4 °C 1015.5 hPa NE 8.0 km/h 8.0 km/h 61 % 0.0 mm 14.0 W/m2 BKN
17:01 27.6 °C 19.6 °C 1015.5 hPa ENE 11.1 km/h 11.1 km/h 62 % 0.0 mm 12.0 W/m2 BKN
17:06 27.4 °C 19.7 °C 1015.5 hPa ENE 11.1 km/h 11.1 km/h 63 % 0.0 mm 12.0 W/m2 BKN
17:11 27.2 °C 19.6 °C 1015.1 hPa NE 11.3 km/h 11.3 km/h 63 % 0.0 mm 11.0 W/m2 BKN
17:16 27.1 °C 19.7 °C 1015.1 hPa NE 13.0 km/h 13.0 km/h 64 % 0.0 mm 12.0 W/m2 BKN
17:21 26.9 °C 19.6 °C 1015.5 hPa East 9.3 km/h 9.3 km/h 64 % 0.0 mm 12.0 W/m2 BKN
17:26 26.9 °C 19.8 °C 1015.5 hPa ESE 6.4 km/h 6.4 km/h 65 % 0.0 mm 14.0 W/m2 BKN
17:31 26.9 °C 19.6 °C 1015.1 hPa ESE 9.3 km/h 9.3 km/h 64 % 0.0 mm 16.0 W/m2 BKN
17:36 27.0 °C 19.3 °C 1015.8 hPa SE 16.7 km/h 16.7 km/h 63 % 0.0 mm 18.0 W/m2 BKN
17:41 27.1 °C 19.4 °C 1015.5 hPa South 19.3 km/h 19.3 km/h 63 % 0.0 mm 18.0 W/m2 BKN
17:46 27.4 °C 18.7 °C 1014.1 hPa SSE 38.9 km/h 38.9 km/h 59 % 0.0 mm 19.0 W/m2 BKN
17:51 30.2 °C 18.6 °C 1014.8 hPa SSE 44.4 km/h 44.4 km/h 50 % 0.0 mm 21.0 W/m2 BKN
17:56 27.4 °C 19.3 °C 1014.4 hPa South 31.5 km/h 31.5 km/h 61 % 0.0 mm 19.0 W/m2 BKN
18:01 26.8 °C 19.4 °C 1014.8 hPa South 31.5 km/h 31.5 km/h 64 % 0.0 mm 21.0 W/m2 BKN
18:06 26.7 °C 19.3 °C 1015.1 hPa SSW 48.1 km/h 48.1 km/h 64 % 0.0 mm 23.0 W/m2 BKN
18:11 26.7 °C 19.6 °C 1014.8 hPa South 46.3 km/h 46.3 km/h 65 % 0.0 mm 26.0 W/m2 BKN
18:16 26.6 °C 19.7 °C 1014.4 hPa South 42.6 km/h 42.6 km/h 66 % 0.0 mm 30.0 W/m2 BKN
18:21 26.4 °C 19.8 °C 1014.4 hPa South 48.1 km/h 48.1 km/h 67 % 0.3 mm 32.0 W/m2 RA
18:26 26.6 °C 18.7 °C 1014.1 hPa South 48.1 km/h 48.1 km/h 62 % 0.3 mm 37.0 W/m2 BKN
18:31 26.2 °C 19.4 °C 1014.1 hPa SSE 44.4 km/h 44.4 km/h 66 % 0.3 mm 44.0 W/m2 BKN
18:36 26.1 °C 19.0 °C 1014.1 hPa SSE 37.0 km/h 37.0 km/h 65 % 0.3 mm 53.0 W/m2 BKN
18:41 27.2 °C 17.6 °C 1013.8 hPa South 33.3 km/h 33.3 km/h 56 % 0.3 mm 65.0 W/m2 SCT
18:46 27.8 °C 16.8 °C 1013.8 hPa South 42.6 km/h 42.6 km/h 51 % 0.3 mm 83.0 W/m2 SCT
18:51 27.5 °C 17.1 °C 1013.4 hPa South 42.6 km/h 42.6 km/h 53 % 0.3 mm 95.0 W/m2 FEW
18:56 28.8 °C 15.0 °C 1013.4 hPa SSW 42.6 km/h 42.6 km/h 43 % 0.3 mm 97.0 W/m2 CLR
19:01 29.6 °C 14.9 °C 1013.4 hPa SE 20.4 km/h 20.4 km/h 41 % 0.3 mm 79.0 W/m2 CLR
19:06 29.0 °C 17.2 °C 1014.1 hPa SSW 20.9 km/h 20.9 km/h 49 % 0.3 mm 60.0 W/m2 FEW
19:11 27.5 °C 17.7 °C 1014.1 hPa SSE 43.4 km/h 43.4 km/h 55 % 0.3 mm 76.0 W/m2 FEW
19:16 27.9 °C 17.4 °C 1014.1 hPa South 38.9 km/h 38.9 km/h 53 % 0.3 mm 84.0 W/m2 FEW
19:27 27.8 °C 17.0 °C 1013.1 hPa SSE 57.9 km/h 57.9 km/h 52 % 0.0 mm 90.0 W/m2 CLR
19:32 28.6 °C 16.5 °C 1013.4 hPa SW 27.8 km/h 27.8 km/h 48 % 0.0 mm 84.0 W/m2 CLR
19:37 28.9 °C 16.5 °C 1013.4 hPa SW 14.8 km/h 14.8 km/h 47 % 0.0 mm 90.0 W/m2 CLR
19:42 28.9 °C 17.4 °C 1013.8 hPa SW 20.4 km/h 20.4 km/h 50 % 0.0 mm 190.0 W/m2 CLR
19:47 28.7 °C 18.2 °C 1014.1 hPa SSW 18.5 km/h 18.5 km/h 53 % 0.0 mm 181.0 W/m2 CLR
19:52 28.6 °C 18.3 °C 1014.1 hPa South 33.3 km/h 33.3 km/h 54 % 0.0 mm 167.0 W/m2 CLR
19:57 28.6 °C 18.3 °C 1013.8 hPa South 24.1 km/h 24.1 km/h 54 % 0.0 mm 149.0 W/m2 CLR
20:02 28.7 °C 18.2 °C 1013.8 hPa South 30.6 km/h 30.6 km/h 53 % 0.0 mm 135.0 W/m2 CLR
20:07 29.0 °C 17.8 °C 1014.1 hPa SSE 18.5 km/h 18.5 km/h 51 % 0.0 mm 125.0 W/m2 CLR
20:12 29.1 °C 17.6 °C 1014.1 hPa South 9.3 km/h 9.3 km/h 50 % 0.0 mm 116.0 W/m2 CLR
20:17 29.2 °C 17.4 °C 1013.8 hPa ESE 14.8 km/h 14.8 km/h 49 % 0.0 mm 98.0 W/m2 CLR
20:22 29.3 °C 17.8 °C 1014.1 hPa Calm     50 % 0.0 mm 84.0 W/m2 CLR
20:27 29.2 °C 17.3 °C 1014.1 hPa ENE 7.4 km/h 8.0 km/h 49 % 0.0 mm 65.0 W/m2 SCT
20:32 29.2 °C 17.3 °C 1014.4 hPa Calm     49 % 0.0 mm 44.0 W/m2 BKN
20:37 28.9 °C 17.7 °C 1014.4 hPa NNW 18.5 km/h 18.5 km/h 51 % 0.0 mm 32.0 W/m2 BKN
20:42 28.7 °C 17.2 °C 1014.8 hPa NW 3.7 km/h 3.7 km/h 50 % 0.0 mm 23.0 W/m2 BKN
20:47 28.8 °C 17.0 °C 1014.8 hPa Calm     49 % 0.0 mm 16.0 W/m2 BKN
20:52 28.9 °C 17.1 °C 1014.8 hPa Calm     49 % 0.0 mm 11.0 W/m2 BKN
20:57 28.6 °C 17.5 °C 1015.1 hPa Calm     51 % 0.0 mm 7.0 W/m2 BKN
21:02 28.4 °C 16.9 °C 1015.1 hPa Calm     50 % 0.0 mm 0.0 W/m2 CLR
21:07 28.4 °C 16.7 °C 1015.1 hPa SE 8.0 km/h 8.0 km/h 49 % 0.0 mm 0.0 W/m2 CLR
21:12 28.8 °C 16.7 °C 1015.1 hPa Calm     48 % 0.0 mm 0.0 W/m2 CLR
21:17 28.8 °C 16.4 °C 1015.1 hPa Calm     47 % 0.0 mm 0.0 W/m2 CLR
21:22 28.3 °C 17.8 °C 1015.1 hPa Calm     53 % 0.0 mm 0.0 W/m2 CLR
21:27 27.7 °C 18.1 °C 1015.1 hPa Calm     56 % 0.0 mm 0.0 W/m2 CLR
21:32 27.0 °C 18.3 °C 1015.1 hPa Calm     59 % 0.0 mm 0.0 W/m2 CLR
21:37 26.6 °C 18.2 °C 1015.5 hPa Calm     60 % 0.0 mm 0.0 W/m2 CLR
21:42 26.2 °C 18.1 °C 1015.5 hPa Calm     61 % 0.0 mm 0.0 W/m2 CLR
21:47 25.8 °C 18.0 °C 1015.5 hPa NE 9.3 km/h 9.3 km/h 62 % 0.0 mm 0.0 W/m2 CLR
21:52 25.8 °C 18.3 °C 1015.5 hPa NE 5.6 km/h 6.3 km/h 63 % 0.0 mm 0.0 W/m2 CLR
21:57 25.6 °C 18.6 °C 1015.8 hPa Calm   0.6 km/h 65 % 0.0 mm 0.0 W/m2 CLR
22:02 25.3 °C 18.5 °C 1015.8 hPa NE 7.4 km/h 7.4 km/h 66 % 0.0 mm 0.0 W/m2 CLR
22:07 25.1 °C 18.8 °C 1015.8 hPa North 9.3 km/h 9.3 km/h 68 % 0.0 mm 0.0 W/m2 CLR
22:12 24.8 °C 18.9 °C 1015.8 hPa Calm     70 % 0.0 mm 0.0 W/m2 CLR
22:17 24.6 °C 19.0 °C 1016.1 hPa Calm     71 % 0.0 mm 0.0 W/m2 CLR
22:22 24.4 °C 18.8 °C 1016.1 hPa Calm     71 % 0.0 mm 0.0 W/m2 CLR
22:27 24.3 °C 18.9 °C 1016.1 hPa Calm     72 % 0.0 mm 0.0 W/m2 CLR
22:32 24.2 °C 19.0 °C 1016.5 hPa Calm     73 % 0.0 mm 0.0 W/m2 CLR
22:37 24.1 °C 19.2 °C 1016.5 hPa NE 11.1 km/h 11.1 km/h 74 % 0.0 mm 0.0 W/m2 CLR
22:42 24.0 °C 19.1 °C 1016.5 hPa Calm     74 % 0.0 mm 0.0 W/m2 CLR
22:47 23.9 °C 19.2 °C 1016.5 hPa Calm     75 % 0.0 mm 0.0 W/m2 CLR
22:53 23.7 °C 19.0 °C 1016.5 hPa NE 8.0 km/h 8.0 km/h 75 % 0.0 mm 0.0 W/m2 CLR
22:58 23.6 °C 19.3 °C 1016.5 hPa Calm     77 % 0.0 mm 0.0 W/m2 CLR
23:03 23.4 °C 19.2 °C 1016.8 hPa Calm     77 % 0.0 mm 0.0 W/m2 CLR
23:08 23.3 °C 19.3 °C 1016.8 hPa Calm     78 % 0.0 mm 0.0 W/m2 CLR
23:13 23.2 °C 19.2 °C 1016.8 hPa Calm     78 % 0.0 mm 0.0 W/m2 CLR
23:18 23.2 °C 19.3 °C 1016.8 hPa Calm     79 % 0.0 mm 0.0 W/m2 CLR
23:23 23.1 °C 19.2 °C 1016.8 hPa Calm     79 % 0.0 mm 0.0 W/m2 CLR
23:28 23.0 °C 19.4 °C 1016.8 hPa Calm     80 % 0.0 mm 0.0 W/m2 CLR
23:33 22.9 °C 19.3 °C 1016.8 hPa Calm     80 % 0.0 mm 0.0 W/m2 CLR
23:38 22.8 °C 19.3 °C 1016.8 hPa Calm     81 % 0.0 mm 0.0 W/m2 CLR
23:43 22.7 °C 19.2 °C 1017.2 hPa Calm     81 % 0.0 mm 0.0 W/m2 CLR
23:48 22.6 °C 19.1 °C 1017.2 hPa Calm     81 % 0.0 mm 0.0 W/m2 CLR
23:53 22.5 °C 19.1 °C 1017.2 hPa Calm     81 % 0.0 mm 0.0 W/m2 CLR
23:58 22.4 °C 18.9 °C 1017.2 hPa Calm     81 % 0.0 mm 0.0 W/m2 CLR
Lo Temps de Massalio
Compliments of Weather Underground - 1.25 mb